Time;durP1;ratioP1;P1;durP2;ratioP2;P2;SDS_P1;SDS_P2;PMS_P1;PMS_P2;Temp;Humidity;BMP_temperature;BMP_pressure;BME280_temperature;BME280_humidity;BME280_pressure;Samples;Min_cycle;Max_cycle;Signal;HPM_P1;HPM_P2
2021/03/23 00:00:48;;;;;;;8.93;5.70;;;;;;;9.10;40.66;99848.50;1804118;79;21084;-79
2021/03/23 00:03:30;;;;;;;8.53;5.42;;;;;;;9.09;40.51;99849.00;1801760;79;21093;-79
2021/03/23 00:05:58;;;;;;;8.10;5.30;;;;;;;9.08;40.40;99855.35;1804455;79;21634;-75
2021/03/23 00:08:38;;;;;;;9.88;5.22;;;;;;;9.05;40.39;99858.34;1804890;79;21559;-76
2021/03/23 00:11:17;;;;;;;7.30;5.37;;;;;;;9.03;40.37;99853.64;1804661;79;21128;-78
2021/03/23 00:13:46;;;;;;;9.15;5.65;;;;;;;9.01;40.24;99861.00;1804676;79;21128;-76
2021/03/23 00:16:18;;;;;;;9.98;5.45;;;;;;;9.01;40.01;99858.33;1804788;79;21192;-78
2021/03/23 00:18:46;;;;;;;7.87;4.75;;;;;;;9.01;39.80;99856.98;1804724;79;21654;-81
2021/03/23 00:21:14;;;;;;;42.80;6.00;;;;;;;8.99;39.71;99858.97;1804675;79;21603;-81
2021/03/23 00:23:41;;;;;;;8.80;3.92;;;;;;;8.98;39.64;99854.63;1804581;79;21069;-79
2021/03/23 00:26:09;;;;;;;6.05;3.92;;;;;;;9.00;39.60;99853.98;1804654;79;21109;-79
2021/03/23 00:28:38;;;;;;;5.60;4.00;;;;;;;9.01;39.47;99859.66;1818674;78;21553;-80
2021/03/23 00:31:07;;;;;;;5.90;4.00;;;;;;;8.99;39.40;99857.63;1837517;78;21149;-78
2021/03/23 00:33:36;;;;;;;6.85;3.58;;;;;;;8.98;39.31;99855.13;1835933;77;21141;-80
2021/03/23 00:36:04;;;;;;;5.83;3.60;;;;;;;8.97;39.30;99859.64;1837464;78;21138;-78
2021/03/23 00:38:34;;;;;;;5.42;3.15;;;;;;;8.93;39.22;99854.28;1837481;77;21109;-80
2021/03/23 00:41:01;;;;;;;5.08;3.12;;;;;;;8.94;39.31;99861.30;1837495;78;21122;-79
2021/03/23 00:43:30;;;;;;;6.00;3.30;;;;;;;8.93;39.13;99861.47;1837408;78;21129;-77
2021/03/23 00:45:57;;;;;;;;;;;;;;;8.91;39.15;99863.48;1840514;78;21150;-78
2021/03/23 00:48:24;;;;;;;6.65;3.45;;;;;;;8.89;39.10;99864.95;1837622;78;20234;-81
2021/03/23 00:50:52;;;;;;;5.17;3.33;;;;;;;8.86;38.94;99861.30;1837518;78;21086;-80
2021/03/23 00:53:19;;;;;;;4.83;2.87;;;;;;;8.55;39.36;99863.66;1816840;78;21494;-76
2021/03/23 00:55:47;;;;;;;5.47;2.80;;;;;;;8.76;39.10;99873.92;1837631;78;21599;-76
2021/03/23 00:58:14;;;;;;;;;;;;;;;8.76;38.87;99869.91;1814879;78;21169;-75
2021/03/23 01:00:41;;;;;;;9.10;2.70;;;;;;;8.76;38.81;99869.91;1804474;79;20482;-76
2021/03/23 01:03:09;;;;;;;4.87;3.02;;;;;;;8.75;38.76;99866.91;1804551;79;21044;-77
2021/03/23 01:05:37;;;;;;;5.85;3.00;;;;;;;8.74;38.59;99874.09;1804690;79;21152;-76
2021/03/23 01:08:07;;;;;;;4.80;2.70;;;;;;;8.74;38.70;99871.42;1804293;79;21148;-80
2021/03/23 01:10:34;;;;;;;5.53;2.80;;;;;;;8.75;38.72;99874.42;1804567;79;21128;-78
2021/03/23 01:13:02;;;;;;;4.70;2.83;;;;;;;8.82;38.46;99877.30;1804376;79;21204;-79
2021/03/23 01:15:32;;;;;;;5.05;2.67;;;;;;;8.84;38.29;99872.62;1784851;79;21140;-79
2021/03/23 01:17:59;;;;;;;5.35;3.00;;;;;;;9.08;37.74;99878.06;1804596;79;21162;-78
2021/03/23 01:20:29;;;;;;;6.15;3.10;;;;;;;9.09;37.74;99877.56;1783927;79;21204;-77
2021/03/23 01:22:56;;;;;;;5.90;3.25;;;;;;;9.12;37.68;99872.70;1804604;79;21586;-80
2021/03/23 01:25:24;;;;;;;4.33;2.22;;;;;;;9.17;37.71;99877.55;1804642;79;21313;-77
2021/03/23 01:27:51;;;;;;;4.53;3.08;;;;;;;9.17;37.67;99875.38;1804463;79;21164;-76
2021/03/23 01:30:22;;;;;;;6.78;2.72;;;;;;;9.19;37.76;99880.91;1804682;79;21041;-78
2021/03/23 01:32:50;;;;;;;6.85;3.05;;;;;;;9.18;37.83;99880.59;1808543;78;21035;-79
2021/03/23 01:35:18;;;;;;;4.35;2.45;;;;;;;9.19;37.88;99883.59;1811923;78;21149;-79
2021/03/23 01:37:46;;;;;;;6.90;3.02;;;;;;;8.91;38.43;99887.02;1811792;77;21146;-76
2021/03/23 01:40:16;;;;;;;6.20;3.42;;;;;;;8.77;38.86;99894.30;1777240;79;21182;-78
2021/03/23 01:42:47;;;;;;;3.62;2.62;;;;;;;9.09;38.32;99885.57;1750399;81;21211;-79
2021/03/23 01:45:29;;;;;;;5.50;2.85;;;;;;;9.12;38.21;99886.56;1743987;81;21122;-78
2021/03/23 01:48:00;;;;;;;5.55;2.95;;;;;;;9.03;38.23;99888.38;1751440;80;21205;-78
2021/03/23 01:50:27;;;;;;;6.78;3.40;;;;;;;8.89;38.82;99888.99;1748046;81;21643;-78
2021/03/23 01:53:12;;;;;;;5.75;3.30;;;;;;;8.94;38.88;99892.02;1757120;81;21573;-78
2021/03/23 01:55:39;;;;;;;5.50;2.65;;;;;;;8.98;39.00;99889.36;1754833;81;21168;-76
2021/03/23 01:58:06;;;;;;;4.87;3.00;;;;;;;8.84;39.25;99889.98;1756597;81;21164;-76
2021/03/23 02:00:33;;;;;;;5.35;3.30;;;;;;;8.59;39.86;99893.05;1779706;80;21193;-77
2021/03/23 02:03:03;;;;;;;4.55;3.30;;;;;;;8.95;39.49;99890.17;1742487;81;21440;-77
2021/03/23 02:05:32;;;;;;;4.67;2.98;;;;;;;9.02;39.46;99896.05;1773026;80;21175;-75
2021/03/23 02:08:00;;;;;;;6.35;3.42;;;;;;;9.02;39.46;99891.21;1812720;78;21753;-76
2021/03/23 02:10:27;;;;;;;6.00;3.05;;;;;;;9.04;39.52;99888.73;1812611;78;21592;-76
2021/03/23 02:12:54;;;;;;;;;;;;;;;9.05;39.60;99890.40;1817588;78;21089;-75
2021/03/23 02:15:23;;;;;;;3.70;2.55;;;;;;;9.05;39.65;99891.73;1812050;78;20228;-76
2021/03/23 02:18:14;;;;;;;4.47;2.83;;;;;;;9.03;39.72;99891.04;1818878;79;21133;-80
2021/03/23 02:21:10;;;;;;;4.85;2.72;;;;;;;9.00;39.57;99892.72;1816670;79;21126;-77
2021/03/23 02:23:45;;;;;;;4.90;2.65;;;;;;;8.99;39.66;99888.85;1820965;78;21054;-76
2021/03/23 02:26:18;;;;;;;5.28;2.62;;;;;;;8.99;39.68;99892.36;1818175;78;21564;-77
2021/03/23 02:28:56;;;;;;;4.28;2.42;;;;;;;8.96;39.51;99892.70;1810616;78;21137;-79
2021/03/23 02:31:29;;;;;;;7.75;2.67;;;;;;;8.94;39.52;99892.52;1815332;78;21125;-77
2021/03/23 02:33:59;;;;;;;6.10;2.90;;;;;;;8.92;39.41;99896.69;1809199;78;21633;-77
2021/03/23 02:36:27;;;;;;;3.80;2.62;;;;;;;8.55;40.22;99900.53;1811236;79;21181;-80
2021/03/23 02:38:55;;;;;;;4.22;2.58;;;;;;;8.87;39.73;99892.34;1816039;78;21113;-79
2021/03/23 02:41:23;;;;;;;4.75;2.75;;;;;;;8.94;39.54;99894.69;1813296;77;21152;-78
2021/03/23 02:43:51;;;;;;;18.95;3.33;;;;;;;8.89;39.43;99890.33;1814733;78;21058;-77
2021/03/23 02:46:19;;;;;;;8.25;2.50;;;;;;;8.84;39.42;99898.82;1817547;79;21130;-78
2021/03/23 02:48:47;;;;;;;4.08;2.25;;;;;;;8.79;39.41;99890.96;1817499;78;21714;-78
2021/03/23 02:51:15;;;;;;;;;;;;;;;8.78;39.43;99897.31;1821033;78;21168;-78
2021/03/23 02:53:43;;;;;;;74.00;6.00;;;;;;;8.73;39.41;99899.63;1817873;79;20289;-78
2021/03/23 02:56:10;;;;;;;11.30;2.40;;;;;;;8.64;39.55;99900.91;1818377;78;21054;-76
2021/03/23 02:58:37;;;;;;;8.33;2.72;;;;;;;8.64;39.47;99898.24;1813910;78;21194;-76
2021/03/23 03:01:05;;;;;;;5.33;2.37;;;;;;;8.64;39.46;99894.73;1813370;78;21102;-76
2021/03/23 03:03:33;;;;;;;3.77;2.20;;;;;;;8.61;39.54;99889.20;1811252;78;21402;-78
2021/03/23 03:06:01;;;;;;;7.00;2.83;;;;;;;8.46;39.66;99889.97;1810266;78;21129;-76
2021/03/23 03:08:28;;;;;;;8.38;2.47;;;;;;;8.59;39.40;99893.88;1810997;78;21145;-79
2021/03/23 03:10:55;;;;;;;4.70;2.30;;;;;;;8.55;39.22;99884.52;1812057;78;21117;-78
2021/03/23 03:13:23;;;;;;;4.42;1.90;;;;;;;8.48;39.14;99886.64;1811970;79;22235;-77
2021/03/23 03:15:52;;;;;;;4.42;2.17;;;;;;;8.41;39.32;99892.28;1815440;78;21110;-78
2021/03/23 03:18:20;;;;;;;6.92;2.10;;;;;;;8.42;39.17;99889.95;1815764;78;21137;-78
2021/03/23 03:20:50;;;;;;;6.50;2.33;;;;;;;8.44;39.04;99879.94;1817429;78;21679;-75
2021/03/23 03:23:18;;;;;;;16.55;2.83;;;;;;;8.49;38.97;99890.47;1818014;78;21136;-77
2021/03/23 03:25:49;;;;;;;7.65;2.27;;;;;;;8.50;38.82;99885.50;1818855;78;21141;-75
2021/03/23 03:28:17;;;;;;;5.33;2.10;;;;;;;8.50;38.82;99884.16;1818236;78;21652;-76
2021/03/23 03:30:44;;;;;;;5.85;1.87;;;;;;;8.49;38.68;99890.97;1818223;79;21122;-78
2021/03/23 03:33:15;;;;;;;6.37;2.20;;;;;;;8.31;38.83;99889.67;1813573;79;21229;-76
2021/03/23 03:35:44;;;;;;;6.17;2.62;;;;;;;8.48;38.56;99895.98;1803522;79;21174;-76
2021/03/23 03:38:11;;;;;;;74.20;4.83;;;;;;;8.53;38.52;99899.84;1804595;79;21108;-77
2021/03/23 03:40:44;;;;;;;3.75;2.25;;;;;;;8.53;38.45;99899.84;1803727;79;21175;-79
2021/03/23 03:43:12;;;;;;;2.62;1.80;;;;;;;8.50;38.34;99904.18;1803336;79;21186;-76
2021/03/23 03:45:39;;;;;;;3.33;1.98;;;;;;;8.46;38.41;99898.81;1804558;79;21061;-77
2021/03/23 03:48:08;;;;;;;4.80;2.20;;;;;;;8.46;38.42;99904.16;1804375;79;21155;-76
2021/03/23 03:50:35;;;;;;;3.77;2.30;;;;;;;8.46;38.41;99897.48;1804102;79;21135;-75
2021/03/23 03:53:03;;;;;;;5.03;2.33;;;;;;;8.48;38.45;99903.98;1803766;79;21589;-76
2021/03/23 03:55:37;;;;;;;4.92;2.52;;;;;;;8.49;38.26;99909.66;1804398;79;21124;-78
2021/03/23 03:58:04;;;;;;;4.75;2.27;;;;;;;8.49;38.20;99910.48;1804544;77;21129;-78
2021/03/23 04:00:32;;;;;;;;;;;;;;;8.51;37.95;99911.19;1807080;79;21571;-77
2021/03/23 04:03:03;;;;;;;6.97;2.12;;;;;;;8.53;37.94;99914.52;1804548;79;20315;-78
2021/03/23 04:05:34;;;;;;;4.35;1.98;;;;;;;8.54;37.94;99904.67;1804430;79;21575;-76
2021/03/23 04:08:03;;;;;;;7.80;2.25;;;;;;;8.57;37.82;99910.54;1804529;79;21124;-79
2021/03/23 04:10:30;;;;;;;4.33;1.98;;;;;;;8.59;37.73;99916.58;1786203;78;21134;-80
2021/03/23 04:12:59;;;;;;;5.60;1.90;;;;;;;8.56;37.49;99915.55;1805522;77;21107;-78
2021/03/23 04:15:31;;;;;;;4.25;2.08;;;;;;;8.44;37.64;99918.13;1814079;79;21181;-77
2021/03/23 04:18:01;;;;;;;4.17;2.25;;;;;;;8.44;37.52;99909.30;1816354;79;21189;-77
2021/03/23 04:20:29;;;;;;;8.25;2.52;;;;;;;8.43;37.47;99913.80;1816470;79;21189;-78
2021/03/23 04:22:58;;;;;;;5.75;2.30;;;;;;;8.43;37.48;99918.30;1820506;78;21628;-77
2021/03/23 04:25:31;;;;;;;7.92;2.35;;;;;;;8.43;37.50;99916.47;1825312;78;21129;-77
2021/03/23 04:27:59;;;;;;;7.75;2.52;;;;;;;8.41;37.34;99927.81;1751695;81;21186;-76
2021/03/23 04:30:27;;;;;;;5.65;2.47;;;;;;;8.38;37.40;99930.78;1823919;77;21291;-76
2021/03/23 04:32:55;;;;;;;4.78;2.77;;;;;;;8.31;37.39;99922.55;1831711;77;21599;-79
2021/03/23 04:35:48;;;;;;;6.28;2.47;;;;;;;8.27;37.57;99926.52;1812424;77;21157;-79
2021/03/23 04:38:20;;;;;;;4.05;2.00;;;;;;;8.25;37.56;99929.83;1792405;78;21150;-75
2021/03/23 04:40:47;;;;;;;6.10;2.62;;;;;;;8.21;37.54;99935.63;1836076;78;21094;-78
2021/03/23 04:43:22;;;;;;;4.95;2.30;;;;;;;8.19;37.52;99932.30;1765137;81;21444;-74
2021/03/23 04:45:49;;;;;;;8.20;2.60;;;;;;;8.19;37.63;99935.80;1793750;80;21122;-75
2021/03/23 04:48:16;;;;;;;17.85;3.00;;;;;;;8.25;37.71;99934.33;1768923;81;22233;-79
2021/03/23 04:50:46;;;;;;;13.90;2.30;;;;;;;8.29;37.51;99941.86;1769443;81;21205;-78
2021/03/23 04:53:27;;;;;;;10.53;1.90;;;;;;;8.35;37.05;99933.72;1769918;81;21185;-78
2021/03/23 04:55:54;;;;;;;8.93;1.87;;;;;;;8.38;36.92;99940.13;1770241;81;21668;-79
2021/03/23 04:58:22;;;;;;;10.82;1.82;;;;;;;8.40;36.58;99940.80;1766869;81;21157;-75
2021/03/23 05:00:49;;;;;;;3.27;1.70;;;;;;;8.36;36.53;99944.77;1760730;81;21178;-77
2021/03/23 05:03:19;;;;;;;4.92;1.85;;;;;;;8.40;36.50;99944.80;1760000;81;21185;-77
2021/03/23 05:05:55;;;;;;;6.92;2.83;;;;;;;8.44;36.41;99947.49;1752362;81;21213;-78
2021/03/23 05:08:23;;;;;;;4.37;2.00;;;;;;;8.49;36.39;99944.35;1762353;80;21177;-76
2021/03/23 05:10:52;;;;;;;4.78;2.00;;;;;;;8.54;36.33;99950.05;1762282;80;21188;-78
2021/03/23 05:13:19;;;;;;;18.02;2.92;;;;;;;8.58;36.07;99950.95;1786420;79;21169;-77
2021/03/23 05:15:47;;;;;;;5.90;2.72;;;;;;;8.61;36.14;99947.11;1766944;80;21180;-75
2021/03/23 05:18:15;;;;;;;8.88;2.62;;;;;;;8.60;36.09;99958.28;1735074;80;21188;-75
2021/03/23 05:20:43;;;;;;;7.17;1.98;;;;;;;8.73;35.89;99951.19;1749088;82;21327;-77
2021/03/23 05:23:12;;;;;;;7.85;1.90;;;;;;;8.78;35.62;99953.38;1748414;82;21239;-79
2021/03/23 05:25:41;;;;;;;12.13;2.47;;;;;;;8.87;35.57;99951.09;1749874;80;21240;-77
2021/03/23 05:28:10;;;;;;;7.72;2.17;;;;;;;8.97;35.50;99953.13;1765807;80;21159;-75
2021/03/23 05:30:38;;;;;;;13.28;2.95;;;;;;;9.06;35.35;99956.18;1738930;81;21114;-77
2021/03/23 05:33:06;;;;;;;8.90;2.22;;;;;;;8.98;35.54;99953.47;1762268;81;21108;-74
2021/03/23 05:35:34;;;;;;;18.07;2.47;;;;;;;8.86;35.49;99954.77;1759798;81;21119;-73
2021/03/23 05:38:02;;;;;;;9.05;1.75;;;;;;;8.94;35.43;99957.45;1743094;81;21145;-76
2021/03/23 05:40:35;;;;;;;6.00;2.10;;;;;;;9.27;34.64;99957.61;1754097;80;21174;-76
2021/03/23 05:43:28;;;;;;;5.35;1.80;;;;;;;9.36;34.53;99960.14;1767424;80;21204;-75
2021/03/23 05:46:19;;;;;;;8.13;2.22;;;;;;;9.43;34.62;99954.97;1762411;80;21177;-78
2021/03/23 05:49:25;;;;;;;6.47;1.75;;;;;;;9.50;34.41;99952.49;1756532;80;21667;-76
2021/03/23 05:52:08;;;;;;;6.80;1.82;;;;;;;9.58;34.27;99953.35;1774660;80;21102;-76
2021/03/23 05:54:57;;;;;;;5.55;1.82;;;;;;;9.67;34.38;99950.16;1753453;80;21151;-76
2021/03/23 05:57:37;;;;;;;3.35;1.67;;;;;;;9.74;34.36;99951.69;1756611;80;23018;-76
2021/03/23 06:00:20;;;;;;;4.70;1.80;;;;;;;9.84;34.23;99955.04;1761611;80;21142;-77
2021/03/23 06:03:19;;;;;;;6.08;2.75;;;;;;;9.92;33.98;99959.06;1758866;80;21628;-77
2021/03/23 06:05:59;;;;;;;5.47;2.50;;;;;;;10.00;33.74;99955.06;1735293;81;21134;-78
2021/03/23 06:08:34;;;;;;;9.33;3.52;;;;;;;10.10;33.45;99950.38;1749737;80;21106;-75
2021/03/23 06:11:43;;;;;;;11.45;3.08;;;;;;;10.13;33.23;99958.08;1726990;81;21138;-76
2021/03/23 06:14:39;;;;;;;4.42;2.60;;;;;;;10.22;33.41;99955.37;1747908;81;21568;-74
2021/03/23 06:17:43;;;;;;;9.95;2.72;;;;;;;10.31;33.16;99954.39;1747615;80;21700;-76
2021/03/23 06:20:20;;;;;;;6.65;1.98;;;;;;;10.39;32.96;99960.58;1749953;80;21130;-75
2021/03/23 06:23:22;;;;;;;13.40;2.63;;;;;;;10.57;33.03;99965.74;1749597;80;21102;-74
2021/03/23 06:26:17;;;;;;;13.28;2.25;;;;;;;10.71;32.51;99971.41;1746579;80;21090;-76
2021/03/23 06:29:07;;;;;;;8.00;1.47;;;;;;;10.80;31.68;99964.52;1751662;80;21138;-77
2021/03/23 06:31:55;;;;;;;12.18;2.10;;;;;;;10.81;31.57;99962.67;1746455;80;21118;-73
2021/03/23 06:34:32;;;;;;;7.90;1.75;;;;;;;10.85;31.86;99972.88;1746792;80;21581;-76
2021/03/23 06:37:25;;;;;;;4.40;1.82;;;;;;;11.04;32.00;99966.31;1861071;75;23321;-76
2021/03/23 06:39:55;;;;;;;12.20;2.17;;;;;;;11.15;31.79;99972.62;1828385;76;21115;-77
2021/03/23 06:42:45;;;;;;;9.85;1.70;;;;;;;11.23;31.38;99974.94;1805725;76;21693;-76
2021/03/23 06:45:30;;;;;;;4.55;1.37;;;;;;;11.26;30.95;99978.09;1824957;76;21985;-77
2021/03/23 06:48:27;;;;;;;12.05;2.37;;;;;;;11.19;30.92;99973.11;1826173;76;21607;-76
2021/03/23 06:51:15;;;;;;;4.87;2.15;;;;;;;11.13;31.28;99973.30;1829726;76;21114;-77
2021/03/23 06:53:42;;;;;;;7.67;2.27;;;;;;;11.03;30.93;99980.69;1829503;76;21098;-76
2021/03/23 06:56:23;;;;;;;7.70;2.27;;;;;;;10.85;31.04;99980.08;1788555;78;21136;-76
2021/03/23 06:59:14;;;;;;;5.67;2.20;;;;;;;10.71;31.24;99972.75;1788738;78;21165;-76
2021/03/23 07:01:51;;;;;;;6.17;1.95;;;;;;;10.62;31.39;99982.14;1768258;79;21600;-76
2021/03/23 07:07:37;;;;;;;4.08;1.85;;;;;;;10.52;31.68;99975.30;1823676;76;24461;-76
2021/03/23 07:10:10;;;;;;;3.98;1.70;;;;;;;10.47;31.75;99970.45;1656348;81;22323;-76
2021/03/23 07:12:46;;;;;;;8.68;1.98;;;;;;;10.47;31.90;99974.47;1729575;81;21265;-76
2021/03/23 07:15:31;;;;;;;4.45;1.70;;;;;;;10.43;31.59;99967.78;1794555;78;21236;-79
2021/03/23 07:18:12;;;;;;;3.37;1.52;;;;;;;10.39;31.74;99967.27;1764780;78;21188;-75
2021/03/23 07:20:48;;;;;;;5.45;2.15;;;;;;;10.38;31.95;99972.80;1716546;81;21226;-80
2021/03/23 07:23:35;;;;;;;3.45;1.62;;;;;;;10.27;32.05;99967.81;1783459;78;21208;-80
2021/03/23 07:26:43;;;;;;;2.27;1.50;;;;;;;10.23;31.63;99971.28;1782633;78;21662;-79
2021/03/23 07:29:38;;;;;;;3.02;1.40;;;;;;;10.24;31.73;99971.64;1838447;76;22808;-77
2021/03/23 07:36:07;;;;;;;;;;;;;;;;;;;;;
2021/03/23 07:38:58;;;;;;;4.03;2.00;;;;;;;10.93;31.06;99978.72;1862271;75;23421;-79
2021/03/23 07:42:08;;;;;;;3.12;1.67;;;;;;;11.14;30.76;99977.66;1812731;76;21204;-80
2021/03/23 07:45:26;;;;;;;3.02;1.50;;;;;;;11.55;30.30;99980.14;1830200;76;21372;-80
2021/03/23 07:48:08;;;;;;;8.30;2.17;;;;;;;11.93;29.60;99978.92;1829004;76;21221;-77
2021/03/23 07:50:50;;;;;;;6.58;1.80;;;;;;;12.24;28.82;99976.68;1826937;76;21206;-80
2021/03/23 07:53:37;;;;;;;10.05;2.15;;;;;;;12.40;28.25;99975.21;1795291;76;21150;-78
2021/03/23 07:56:39;;;;;;;2.55;1.87;;;;;;;12.74;28.11;99969.31;1831088;76;21133;-75
2021/03/23 07:59:43;;;;;;;3.12;1.50;;;;;;;13.09;27.61;99966.92;1828518;76;21176;-76
2021/03/23 08:02:56;;;;;;;4.28;1.87;;;;;;;13.39;26.77;99967.73;1828797;76;21131;-76
2021/03/23 08:05:35;;;;;;;2.80;1.70;;;;;;;13.62;26.21;99968.41;1794786;76;21112;-77
2021/03/23 08:08:37;;;;;;;2.95;1.30;;;;;;;13.80;26.06;99961.78;1824829;76;21097;-79
2021/03/23 08:11:45;;;;;;;5.12;2.10;;;;;;;13.95;25.27;99957.19;1796484;76;21125;-79
2021/03/23 08:14:37;;;;;;;2.58;1.32;;;;;;;14.10;25.47;99955.77;1772059;76;21696;-76
2021/03/23 08:17:34;;;;;;;4.55;1.62;;;;;;;14.20;25.16;99958.44;1829174;76;21108;-77
2021/03/23 08:20:54;;;;;;;3.55;2.08;;;;;;;14.28;24.86;99958.00;1788004;76;21163;-77
2021/03/23 08:24:11;;;;;;;4.65;1.52;;;;;;;14.40;24.68;99952.41;1829245;76;21150;-78
2021/03/23 08:26:56;;;;;;;4.90;2.35;;;;;;;14.47;23.88;99958.14;1829148;76;21089;-76
2021/03/23 08:29:49;;;;;;;4.47;2.00;;;;;;;14.34;23.33;99958.03;1828039;76;21115;-77
2021/03/23 08:32:52;;;;;;;6.97;1.17;;;;;;;14.07;23.58;99959.66;1755498;79;21139;-79
2021/03/23 08:36:00;;;;;;;5.12;1.35;;;;;;;13.77;23.47;99960.31;1801509;76;21188;-81
2021/03/23 08:39:01;;;;;;;4.67;1.35;;;;;;;13.55;23.91;99959.45;1827882;76;21097;-74
2021/03/23 08:41:56;;;;;;;1.37;0.90;;;;;;;13.57;24.21;99956.05;1740491;79;21101;-76
2021/03/23 08:44:43;;;;;;;2.35;1.20;;;;;;;13.71;24.45;99949.78;1740859;80;21155;-79
2021/03/23 08:58:14;;;;;;;1.45;0.90;;;;;;;13.77;23.51;99950.06;1773515;78;22041;-77
2021/03/23 09:00:56;;;;;;;4.25;1.20;;;;;;;13.98;23.36;99956.78;1750405;80;21140;-77
2021/03/23 09:03:43;;;;;;;2.67;1.20;;;;;;;14.19;23.04;99954.09;1738241;80;21193;-79
2021/03/23 09:06:24;;;;;;;2.95;1.40;;;;;;;14.03;23.20;99951.65;1823151;77;22713;-78
2021/03/23 09:08:56;;;;;;;1.57;1.00;;;;;;;14.06;23.37;99956.66;1796283;78;21169;-78
2021/03/23 09:12:02;;;;;;;5.50;1.27;;;;;;;14.22;22.74;99946.14;1791860;78;21946;-80
2021/03/23 09:14:33;;;;;;;5.03;1.30;;;;;;;14.49;22.25;99955.80;1826712;76;21714;-80
2021/03/23 09:17:16;;;;;;;4.17;1.10;;;;;;;14.42;22.19;99947.64;1820635;76;21208;-76
2021/03/23 09:19:53;;;;;;;1.80;0.82;;;;;;;14.43;21.68;99947.44;1799240;76;21101;-77
2021/03/23 09:22:26;;;;;;;1.87;0.90;;;;;;;14.21;21.99;99943.94;1825443;76;21105;-76
2021/03/23 09:25:18;;;;;;;2.27;0.98;;;;;;;13.94;22.36;99944.73;1824325;76;21141;-76
2021/03/23 09:42:15;;;;;;;3.12;1.27;;;;;;;12.76;24.70;99957.03;1828484;76;22474;-78
2021/03/23 09:45:39;;;;;;;2.65;1.20;;;;;;;12.55;24.67;99962.63;1787814;76;23360;-75
2021/03/23 09:48:32;;;;;;;4.62;1.20;;;;;;;12.26;24.59;99963.89;1787876;78;21177;-77
2021/03/23 09:51:13;;;;;;;3.35;0.98;;;;;;;11.99;24.39;99966.14;1789535;78;21461;-76
2021/03/23 09:54:16;;;;;;;3.25;1.60;;;;;;;11.78;24.29;99956.02;1758801;78;21766;-76
2021/03/23 09:56:58;;;;;;;3.60;1.47;;;;;;;11.69;24.04;99951.22;1761190;78;21200;-77
2021/03/23 09:59:34;;;;;;;5.85;1.77;;;;;;;11.96;23.56;99955.77;1787521;78;21099;-77
2021/03/23 10:02:27;;;;;;;;;;;;;;;;;;;;;
2021/03/23 10:05:31;;;;;;;4.62;1.80;;;;;;;11.73;23.98;99946.34;1859584;75;25225;-77
2021/03/23 10:08:32;;;;;;;4.50;1.37;;;;;;;11.74;24.06;99953.88;1836073;76;21164;-79
2021/03/23 10:11:19;;;;;;;5.10;1.70;;;;;;;11.44;24.36;99949.68;1830195;76;21109;-78
2021/03/23 10:14:33;;;;;;;3.08;1.07;;;;;;;11.68;24.24;99946.03;1812660;76;21133;-76
2021/03/23 10:17:11;;;;;;;8.73;1.35;;;;;;;11.84;24.07;99945.11;1781016;76;26504;-77
2021/03/23 10:19:50;;;;;;;3.15;1.50;;;;;;;11.84;24.78;99950.47;1838520;76;21109;-78
2021/03/23 10:22:28;;;;;;;3.83;1.62;;;;;;;11.82;25.10;99945.77;1835239;76;21212;-77
2021/03/23 10:24:58;;;;;;;4.65;0.90;;;;;;;11.73;25.58;99944.16;1833737;76;21125;-76
2021/03/23 10:27:33;;;;;;;1.77;1.25;;;;;;;11.84;25.41;99945.94;1837146;76;21601;-75
2021/03/23 10:30:19;;;;;;;2.00;1.20;;;;;;;11.86;25.58;99940.41;1839358;77;21592;-77
2021/03/23 10:32:52;;;;;;;5.37;2.00;;;;;;;11.91;25.29;99934.83;1789156;77;21140;-77
2021/03/23 10:35:45;;;;;;;3.83;1.57;;;;;;;12.17;25.03;99934.45;1839567;77;21101;-78
2021/03/23 10:38:19;;;;;;;5.37;3.05;;;;;;;12.29;24.73;99932.66;1836674;77;21187;-79
2021/03/23 10:40:55;;;;;;;3.35;1.10;;;;;;;12.32;24.67;99924.25;1840745;77;20990;-80
2021/03/23 10:43:41;;;;;;;6.33;1.60;;;;;;;12.09;25.59;99926.98;1836289;76;21153;-78
2021/03/23 10:46:46;;;;;;;;;;;;;;;;;;;;;
2021/03/23 10:49:28;;;;;;;1.17;0.80;;;;;;;12.14;25.97;99920.04;1835796;77;21104;-77
2021/03/23 10:52:04;;;;;;;;;;;;;;;12.22;26.13;99928.54;1809370;77;21214;-78
2021/03/23 10:54:38;;;;;;;1.98;0.70;;;;;;;12.32;25.57;99920.22;1833778;77;20333;-75
2021/03/23 10:57:38;;;;;;;2.65;1.00;;;;;;;12.29;25.52;99916.03;1817566;77;21551;-75
2021/03/23 11:00:33;;;;;;;1.22;0.78;;;;;;;12.40;25.62;99914.27;1812875;77;21117;-75
2021/03/23 11:03:20;;;;;;;2.37;0.72;;;;;;;12.51;25.11;99912.97;1805798;76;21090;-76
2021/03/23 11:05:51;;;;;;;6.25;1.17;;;;;;;12.34;24.35;99913.63;1774619;78;21254;-76
2021/03/23 11:08:19;;;;;;;5.85;1.10;;;;;;;12.31;24.18;99923.42;1821448;76;21770;-77
2021/03/23 11:10:47;;;;;;;16.23;4.12;;;;;;;12.18;24.16;99919.17;1833056;76;21134;-78
2021/03/23 11:13:15;;;;;;;3.15;1.10;;;;;;;12.05;24.52;99918.44;1834678;77;21124;-77
2021/03/23 11:15:50;;;;;;;3.83;1.52;;;;;;;11.97;24.88;99930.58;1832539;77;21065;-75
2021/03/23 11:18:31;;;;;;;1.80;1.10;;;;;;;11.90;25.40;99925.11;1834967;76;21134;-74
2021/03/23 11:21:03;;;;;;;1.98;0.88;;;;;;;11.76;25.93;99923.66;1808501;77;21117;-75
2021/03/23 11:23:42;;;;;;;1.07;0.85;;;;;;;12.04;25.98;99916.78;1833091;76;21631;-76
2021/03/23 11:26:15;;;;;;;3.75;1.47;;;;;;;12.01;26.35;99926.52;1832182;77;21121;-79
2021/03/23 11:28:54;;;;;;;2.60;0.78;;;;;;;11.96;26.04;99923.55;1830849;77;21105;-77
2021/03/23 11:31:23;;;;;;;4.25;0.72;;;;;;;11.56;26.18;99917.94;1834942;76;21113;-75
2021/03/23 11:33:51;;;;;;;2.58;1.17;;;;;;;11.61;26.07;99925.77;1836444;76;21152;-78
2021/03/23 11:36:24;;;;;;;4.80;1.12;;;;;;;11.29;26.30;99926.81;1803026;76;21165;-76
2021/03/23 11:38:51;;;;;;;8.15;2.08;;;;;;;11.48;26.07;99928.72;1832782;76;21128;-76
2021/03/23 11:41:27;;;;;;;5.47;1.52;;;;;;;11.11;25.95;99925.72;1807736;77;21100;-74
2021/03/23 11:44:02;;;;;;;5.03;1.20;;;;;;;11.33;26.00;99927.30;1801396;77;21137;-76
2021/03/23 11:47:04;;;;;;;1.70;1.05;;;;;;;11.32;25.94;99922.45;1787521;76;21114;-75
2021/03/23 11:50:02;;;;;;;4.15;1.05;;;;;;;11.29;25.45;99914.74;1818454;77;21089;-75
2021/03/23 11:52:35;;;;;;;2.00;0.90;;;;;;;11.29;25.39;99905.88;1834080;76;21104;-75
2021/03/23 11:55:06;;;;;;;2.42;0.98;;;;;;;11.33;24.65;99901.83;1833463;76;21548;-74
2021/03/23 11:57:39;;;;;;;4.65;1.02;;;;;;;11.29;24.75;99900.51;1776352;77;21808;-75
2021/03/23 12:00:10;;;;;;;4.45;0.98;;;;;;;11.25;24.90;99900.53;1835634;76;21132;-75
2021/03/23 12:02:38;;;;;;;2.92;0.80;;;;;;;11.26;25.14;99895.48;1840145;76;21129;-75
2021/03/23 12:05:08;;;;;;;2.62;0.85;;;;;;;11.15;25.11;99894.87;1831665;77;21106;-76
2021/03/23 12:07:54;;;;;;;5.67;1.20;;;;;;;11.18;25.14;99899.07;1803742;77;21089;-76
2021/03/23 12:10:36;;;;;;;2.05;1.10;;;;;;;11.18;24.47;99910.63;1838296;76;21105;-74
2021/03/23 12:13:25;;;;;;;1.90;0.93;;;;;;;11.15;24.63;99913.64;1838181;76;21112;-74
2021/03/23 12:16:08;;;;;;;3.22;0.95;;;;;;;11.13;24.99;99917.02;1840122;76;21116;-75
2021/03/23 12:18:36;;;;;;;6.80;1.00;;;;;;;11.13;25.50;99913.51;1828819;76;21126;-75
2021/03/23 12:21:05;;;;;;;6.55;0.98;;;;;;;11.10;26.53;99914.68;1840991;77;21104;-78
2021/03/23 12:23:33;;;;;;;3.77;1.02;;;;;;;11.10;27.22;99916.53;1836035;77;21197;-75
2021/03/23 12:26:00;;;;;;;5.22;1.45;;;;;;;11.11;27.64;99912.32;1836721;77;21224;-76
2021/03/23 12:28:28;;;;;;;1.60;1.02;;;;;;;11.07;27.91;99916.36;1833259;76;21268;-74
2021/03/23 12:30:56;;;;;;;2.83;1.12;;;;;;;11.09;27.82;99917.55;1831541;77;21168;-74
2021/03/23 12:33:24;;;;;;;4.08;1.40;;;;;;;11.20;27.58;99905.59;1836719;76;21435;-74
2021/03/23 12:35:57;;;;;;;1.80;1.20;;;;;;;11.25;27.56;99920.63;1832467;76;21623;-75
2021/03/23 12:38:23;;;;;;;3.00;1.00;;;;;;;11.28;27.55;99914.93;1835008;76;21014;-78
2021/03/23 12:40:51;;;;;;;2.98;1.50;;;;;;;11.30;27.58;99921.77;1837818;76;21504;-79
2021/03/23 12:43:24;;;;;;;7.05;1.22;;;;;;;11.20;27.79;99924.34;1834211;76;21098;-78
2021/03/23 12:45:53;;;;;;;4.22;1.50;;;;;;;11.25;28.28;99923.31;1836628;77;21081;-77
2021/03/23 12:48:20;;;;;;;10.05;1.67;;;;;;;11.20;30.02;99941.77;1807248;77;21605;-77
2021/03/23 12:50:48;;;;;;;2.17;1.52;;;;;;;10.99;31.69;99963.80;1839264;76;21136;-79
2021/03/23 12:53:20;;;;;;;2.77;1.27;;;;;;;10.70;33.88;99965.22;1841601;77;21132;-76
2021/03/23 12:55:50;;;;;;;3.33;1.32;;;;;;;10.43;35.20;99966.44;1837406;76;21106;-77
2021/03/23 12:58:24;;;;;;;3.33;1.70;;;;;;;10.25;35.82;99964.45;1839025;76;21117;-77
2021/03/23 13:00:54;;;;;;;4.33;2.50;;;;;;;10.11;36.85;99958.73;1833267;76;21137;-81